Time;durP1;ratioP1;P1;durP2;ratioP2;P2;SDS_P1;SDS_P2;PMS_P1;PMS_P2;Temp;Humidity;BMP_temperature;BMP_pressure;BME280_temperature;BME280_humidity;BME280_pressure;Samples;Min_cycle;Max_cycle;Signal;HPM_P1;HPM_P2
2022/04/14 00:01:43;;;;;;;12.10;4.68;;;17.10;67.40;;;;;;7372036;19;20126;-81
2022/04/14 00:04:13;;;;;;;10.20;4.32;;;17.10;67.30;;;;;;7368068;19;20027;-82
2022/04/14 00:06:45;;;;;;;10.75;4.55;;;17.00;67.20;;;;;;7393413;19;20031;-82
2022/04/14 00:09:14;;;;;;;12.88;4.13;;;17.00;67.50;;;;;;7370963;19;20453;-82
2022/04/14 00:11:44;;;;;;;7.05;4.00;;;17.00;68.20;;;;;;7369429;19;20031;-82
2022/04/14 00:14:14;;;;;;;9.65;4.28;;;17.00;67.50;;;;;;7374279;19;20018;-82
2022/04/14 00:16:46;;;;;;;11.32;4.70;;;17.00;67.00;;;;;;7375345;19;20014;-82
2022/04/14 00:19:18;;;;;;;9.63;4.00;;;17.00;67.10;;;;;;7374603;19;20023;-82
2022/04/14 00:21:54;;;;;;;15.57;5.05;;;16.90;66.90;;;;;;7394397;19;20019;-82
2022/04/14 00:24:23;;;;;;;10.00;5.20;;;16.90;66.80;;;;;;7378005;19;20025;-82
2022/04/14 00:26:53;;;;;;;12.50;5.07;;;16.80;66.70;;;;;;7377241;19;20015;-81
2022/04/14 00:29:26;;;;;;;10.52;4.40;;;16.80;66.90;;;;;;7375946;19;20606;-82
2022/04/14 00:32:05;;;;;;;13.43;4.18;;;16.70;67.10;;;;;;7375121;19;20039;-83
2022/04/14 00:34:35;;;;;;;7.97;4.82;;;16.70;67.20;;;;;;7377415;19;20623;-81
2022/04/14 00:37:09;;;;;;;9.68;6.00;;;16.70;67.10;;;;;;7375807;19;20018;-83
2022/04/14 00:39:39;;;;;;;11.55;5.30;;;16.70;66.90;;;;;;7398891;19;20310;-81
2022/04/14 00:42:14;;;;;;;10.90;5.38;;;16.70;67.30;;;;;;7377565;19;20081;-81
2022/04/14 00:44:46;;;;;;;14.00;5.13;;;16.60;67.50;;;;;;7377308;19;20021;-83
2022/04/14 00:47:20;;;;;;;17.42;4.90;;;16.60;67.00;;;;;;7376236;19;20011;-82
2022/04/14 00:49:50;;;;;;;16.45;5.38;;;16.60;66.70;;;;;;7373338;19;20023;-82
2022/04/14 00:52:29;;;;;;;16.90;4.88;;;16.60;67.00;;;;;;7372586;19;20010;-82
2022/04/14 00:54:59;;;;;;;13.88;4.97;;;16.50;67.10;;;;;;7377797;19;20019;-81
2022/04/14 00:57:32;;;;;;;13.35;5.00;;;16.50;67.10;;;;;;7395281;19;20022;-83
2022/04/14 01:00:01;;;;;;;14.73;5.90;;;16.50;66.90;;;;;;7375019;19;20030;-82
2022/04/14 01:02:38;;;;;;;10.55;5.45;;;16.50;66.90;;;;;;7374307;19;20922;-83
2022/04/14 01:05:09;;;;;;;12.30;4.50;;;16.40;66.90;;;;;;7374717;19;20018;-82
2022/04/14 01:07:45;;;;;;;11.93;4.75;;;16.40;66.80;;;;;;7378343;19;20388;-82
2022/04/14 01:10:15;;;;;;;15.70;5.43;;;16.40;66.80;;;;;;7374723;19;20017;-82
2022/04/14 01:12:51;;;;;;;11.73;5.10;;;16.40;66.70;;;;;;7393306;19;20015;-82
2022/04/14 01:15:22;;;;;;;11.98;4.90;;;16.40;66.60;;;;;;7376529;19;20045;-82
2022/04/14 01:17:52;;;;;;;10.25;5.75;;;16.50;66.70;;;;;;7376290;19;20015;-84
2022/04/14 01:20:23;;;;;;;10.20;4.90;;;16.40;66.50;;;;;;7376248;19;20032;-82
2022/04/14 01:22:59;;;;;;;13.80;5.30;;;16.40;66.50;;;;;;7373610;19;20066;-81
2022/04/14 01:25:32;;;;;;;9.18;5.43;;;16.40;66.40;;;;;;7373039;19;20446;-83
2022/04/14 01:28:01;;;;;;;9.43;5.30;;;16.40;65.40;;;;;;7376884;19;20006;-82
2022/04/14 01:30:42;;;;;;;10.77;5.75;;;16.40;65.50;;;;;;7396641;19;20042;-84
2022/04/14 01:33:11;;;;;;;12.35;5.38;;;16.30;65.60;;;;;;7376746;19;20011;-82
2022/04/14 01:35:46;;;;;;;12.02;5.45;;;16.30;66.10;;;;;;7373331;19;20018;-82
2022/04/14 01:38:20;;;;;;;13.13;5.35;;;16.30;65.80;;;;;;7376417;19;20447;-83
2022/04/14 01:40:54;;;;;;;6.60;4.60;;;16.30;65.70;;;;;;7372450;19;20011;-82
2022/04/14 01:43:24;;;;;;;10.02;5.07;;;16.30;65.60;;;;;;7373860;19;20065;-82
2022/04/14 01:45:53;;;;;;;7.45;4.97;;;16.30;65.50;;;;;;7394903;19;20034;-82
2022/04/14 01:48:22;;;;;;;14.27;5.07;;;16.30;65.70;;;;;;7372854;19;20010;-81
2022/04/14 01:50:52;;;;;;;8.95;5.05;;;16.40;65.60;;;;;;7371636;19;20019;-83
2022/04/14 01:53:21;;;;;;;8.77;5.32;;;16.30;65.30;;;;;;7371422;19;20029;-82
2022/04/14 01:55:53;;;;;;;10.55;5.47;;;16.30;65.50;;;;;;7373901;19;20037;-81
2022/04/14 01:58:22;;;;;;;10.73;5.40;;;16.20;65.50;;;;;;7371749;19;20006;-82
2022/04/14 02:00:51;;;;;;;10.35;5.57;;;16.20;66.00;;;;;;7393162;19;20225;-82
2022/04/14 02:03:20;;;;;;;13.40;5.45;;;16.20;65.70;;;;;;7372841;19;21573;-82
2022/04/14 02:05:49;;;;;;;10.43;5.45;;;16.20;65.90;;;;;;7370502;19;20453;-82
2022/04/14 02:08:18;;;;;;;13.88;5.95;;;16.20;66.00;;;;;;7371749;19;20094;-82
2022/04/14 02:10:48;;;;;;;12.70;6.22;;;16.10;65.50;;;;;;7374236;19;20038;-81
2022/04/14 02:13:19;;;;;;;10.25;6.22;;;16.10;65.70;;;;;;7373338;19;20010;-82
2022/04/14 02:15:48;;;;;;;11.18;6.30;;;16.00;66.10;;;;;;7393778;19;20047;-81
2022/04/14 02:18:18;;;;;;;11.57;6.22;;;16.00;66.00;;;;;;7370640;19;20012;-82
2022/04/14 02:20:47;;;;;;;11.13;5.78;;;16.10;66.00;;;;;;7375192;19;20030;-81
2022/04/14 02:23:16;;;;;;;7.57;5.25;;;16.10;65.90;;;;;;7373459;19;20022;-83
2022/04/14 02:25:45;;;;;;;10.93;4.60;;;16.10;66.20;;;;;;7374598;19;20032;-81
2022/04/14 02:28:15;;;;;;;14.73;5.95;;;16.10;66.10;;;;;;7374293;19;20020;-81
2022/04/14 02:30:47;;;;;;;14.23;5.40;;;16.10;65.80;;;;;;7396495;19;20018;-83
2022/04/14 02:33:24;;;;;;;12.80;4.75;;;16.10;65.70;;;;;;7371713;19;20011;-82
2022/04/14 02:35:54;;;;;;;11.48;5.63;;;16.10;65.60;;;;;;7373637;19;20757;-82
2022/04/14 02:38:28;;;;;;;10.65;4.88;;;16.10;66.40;;;;;;7371363;19;20018;-82
2022/04/14 02:41:04;;;;;;;12.77;5.97;;;16.00;65.60;;;;;;7330662;19;20015;-82
2022/04/14 02:43:39;;;;;;;9.43;5.90;;;16.10;65.20;;;;;;7337631;19;20030;-83
2022/04/14 02:46:22;;;;;;;13.30;6.80;;;16.10;65.50;;;;;;7370288;19;20019;-82
2022/04/14 02:48:57;;;;;;;10.55;6.00;;;16.00;65.70;;;;;;7393745;19;20022;-82
2022/04/14 02:51:44;;;;;;;17.25;6.32;;;16.00;65.60;;;;;;7370548;19;20030;-83
2022/04/14 02:54:13;;;;;;;10.10;5.75;;;15.90;65.80;;;;;;7372418;19;20027;-83
2022/04/14 02:56:43;;;;;;;10.05;5.47;;;15.90;66.10;;;;;;7373368;19;20014;-83
2022/04/14 02:59:12;;;;;;;8.80;5.40;;;15.90;66.10;;;;;;7333288;19;20015;-83
2022/04/14 03:01:44;;;;;;;10.15;5.30;;;16.00;66.20;;;;;;7369711;19;20461;-83
2022/04/14 03:04:13;;;;;;;10.85;5.70;;;15.90;66.10;;;;;;7372617;19;20027;-82
2022/04/14 03:06:42;;;;;;;8.52;5.43;;;15.90;66.20;;;;;;7392533;19;20031;-82
2022/04/14 03:09:11;;;;;;;8.10;5.65;;;15.90;66.50;;;;;;7372108;19;20015;-82
2022/04/14 03:11:40;;;;;;;8.85;6.22;;;15.90;66.50;;;;;;7369700;19;20015;-82
2022/04/14 03:14:09;;;;;;;12.77;5.68;;;15.90;66.30;;;;;;7371252;19;20022;-81
2022/04/14 03:16:39;;;;;;;11.90;5.32;;;15.80;66.10;;;;;;7371185;19;20023;-82
2022/04/14 03:19:10;;;;;;;7.63;5.85;;;15.80;66.90;;;;;;7368099;19;20048;-83
2022/04/14 03:21:39;;;;;;;13.07;5.95;;;15.80;66.00;;;;;;7390799;19;20096;-83
2022/04/14 03:24:09;;;;;;;20.13;6.25;;;15.70;66.10;;;;;;7371043;19;20383;-81
2022/04/14 03:26:38;;;;;;;11.25;6.75;;;15.70;66.40;;;;;;7371612;19;20027;-82
2022/04/14 03:29:07;;;;;;;13.40;6.88;;;15.70;66.10;;;;;;7370787;19;20055;-82
2022/04/14 03:31:37;;;;;;;8.80;6.20;;;15.70;66.40;;;;;;7369218;19;20051;-83
2022/04/14 03:34:11;;;;;;;11.70;5.60;;;15.70;66.10;;;;;;7367968;19;20060;-83
2022/04/14 03:36:43;;;;;;;15.80;6.13;;;15.70;66.30;;;;;;7389986;19;20593;-82
2022/04/14 03:39:13;;;;;;;12.43;5.38;;;15.70;66.40;;;;;;7369942;19;20021;-83
2022/04/14 03:41:43;;;;;;;12.10;5.70;;;15.80;66.30;;;;;;7365776;19;20011;-82
2022/04/14 03:44:16;;;;;;;13.20;5.50;;;15.70;66.10;;;;;;7370519;19;20031;-83
2022/04/14 03:46:46;;;;;;;7.65;5.20;;;15.80;66.30;;;;;;7369431;19;20517;-83
2022/04/14 03:49:20;;;;;;;9.63;5.68;;;15.70;66.00;;;;;;7369133;19;20411;-83
2022/04/14 03:52:04;;;;;;;13.02;6.05;;;15.80;66.10;;;;;;7399816;19;20023;-83
2022/04/14 03:54:35;;;;;;;9.20;5.55;;;15.70;66.40;;;;;;7377367;19;20014;-83
2022/04/14 03:57:14;;;;;;;10.43;6.10;;;15.70;66.40;;;;;;7377203;19;20480;-83
2022/04/14 03:59:49;;;;;;;11.80;5.57;;;15.70;66.40;;;;;;7374624;19;20468;-83
2022/04/14 04:02:20;;;;;;;11.73;6.38;;;15.70;66.10;;;;;;7377870;19;20035;-83
2022/04/14 04:04:51;;;;;;;8.48;5.55;;;15.70;65.70;;;;;;7378409;19;20041;-82
2022/04/14 04:07:24;;;;;;;11.88;5.50;;;15.70;65.70;;;;;;7377817;19;20091;-82
2022/04/14 04:09:54;;;;;;;14.32;6.00;;;15.70;66.00;;;;;;7397558;19;20043;-82
2022/04/14 04:12:24;;;;;;;11.80;6.03;;;15.70;65.70;;;;;;7417881;19;20010;-83
2022/04/14 04:14:54;;;;;;;12.90;6.07;;;15.60;65.60;;;;;;7406519;19;20023;-82
2022/04/14 04:17:25;;;;;;;14.90;6.93;;;15.60;66.00;;;;;;7401760;19;20023;-82
2022/04/14 04:19:56;;;;;;;13.48;7.40;;;15.60;66.30;;;;;;7404704;19;20022;-83
2022/04/14 04:22:28;;;;;;;14.60;6.60;;;15.50;66.20;;;;;;7404239;19;20017;-80
2022/04/14 04:24:59;;;;;;;12.75;6.95;;;15.50;66.30;;;;;;7387035;19;20021;-83
2022/04/14 04:27:33;;;;;;;13.45;5.68;;;15.50;66.30;;;;;;7404659;19;20026;-81
2022/04/14 04:30:18;;;;;;;9.48;5.38;;;15.60;66.30;;;;;;7380758;19;20029;-81
2022/04/14 04:32:50;;;;;;;8.25;5.15;;;15.50;67.20;;;;;;7374610;19;20265;-82
2022/04/14 04:35:24;;;;;;;7.80;5.22;;;15.60;66.00;;;;;;7377610;19;20023;-81
2022/04/14 04:37:57;;;;;;;10.48;5.38;;;15.50;65.90;;;;;;7375596;19;20024;-82
2022/04/14 04:40:28;;;;;;;11.70;5.22;;;15.50;65.90;;;;;;7377293;19;20090;-82
2022/04/14 04:43:14;;;;;;;9.32;5.50;;;15.50;65.70;;;;;;7374892;19;20330;-82
2022/04/14 04:46:13;;;;;;;8.02;4.85;;;15.50;65.70;;;;;;7397305;19;20448;-82
2022/04/14 04:49:04;;;;;;;13.10;6.45;;;15.50;65.50;;;;;;7376295;19;20030;-84
2022/04/14 04:51:43;;;;;;;13.82;7.28;;;15.40;65.60;;;;;;7375851;19;20018;-83
2022/04/14 04:54:34;;;;;;;12.02;7.60;;;15.30;66.10;;;;;;7376486;19;20027;-84
2022/04/14 04:57:10;;;;;;;9.77;6.10;;;15.20;66.60;;;;;;7330993;19;20011;-82
2022/04/14 04:59:58;;;;;;;9.95;5.63;;;15.20;67.00;;;;;;7374964;19;20018;-82
2022/04/14 05:02:33;;;;;;;10.98;5.45;;;15.20;66.90;;;;;;7375985;19;20074;-82
2022/04/14 05:05:07;;;;;;;10.73;5.35;;;15.20;66.80;;;;;;7373684;19;20381;-82
2022/04/14 05:07:36;;;;;;;13.60;5.78;;;15.10;66.70;;;;;;7373570;19;20015;-81
2022/04/14 05:10:13;;;;;;;9.77;5.35;;;15.20;66.70;;;;;;7377466;19;20028;-81
2022/04/14 05:12:44;;;;;;;8.27;5.57;;;15.10;66.80;;;;;;7397100;19;20029;-83
2022/04/14 05:15:13;;;;;;;10.93;6.77;;;15.20;66.60;;;;;;7374966;19;20296;-81
2022/04/14 05:17:53;;;;;;;11.57;6.32;;;15.20;66.30;;;;;;7376033;19;20022;-81
2022/04/14 05:20:23;;;;;;;10.40;6.35;;;15.10;66.30;;;;;;7373727;19;20018;-82
2022/04/14 05:22:53;;;;;;;9.68;6.35;;;15.10;66.50;;;;;;7372366;19;20022;-82
2022/04/14 05:25:27;;;;;;;10.48;5.68;;;15.10;66.70;;;;;;7372997;19;20016;-82
2022/04/14 05:27:58;;;;;;;9.25;6.45;;;15.10;66.80;;;;;;7373561;19;20023;-83
2022/04/14 05:30:28;;;;;;;10.07;6.25;;;15.20;66.60;;;;;;7392877;19;20015;-83
2022/04/14 05:33:00;;;;;;;12.82;6.70;;;15.20;66.40;;;;;;7374271;19;20015;-81
2022/04/14 05:35:30;;;;;;;13.35;7.57;;;15.20;66.30;;;;;;7374500;19;20018;-81
2022/04/14 05:37:59;;;;;;;18.48;7.40;;;15.20;66.00;;;;;;7376427;19;20049;-81
2022/04/14 05:40:35;;;;;;;16.20;7.50;;;15.20;65.80;;;;;;7376502;19;20007;-81
2022/04/14 05:43:04;;;;;;;16.25;7.93;;;15.20;65.70;;;;;;7375395;19;20014;-81
2022/04/14 05:45:34;;;;;;;15.15;8.45;;;15.20;66.40;;;;;;7393436;19;20497;-81
2022/04/14 05:48:07;;;;;;;18.50;8.43;;;15.20;65.70;;;;;;7372318;19;20011;-82
2022/04/14 05:50:46;;;;;;;13.52;6.50;;;15.20;66.10;;;;;;7373955;19;20101;-81
2022/04/14 05:53:22;;;;;;;14.68;6.88;;;15.10;66.00;;;;;;7372971;19;20018;-81
2022/04/14 05:56:01;;;;;;;12.90;6.65;;;15.10;66.10;;;;;;7372462;19;20045;-82
2022/04/14 05:58:44;;;;;;;14.15;7.57;;;15.10;66.10;;;;;;7374229;19;20018;-81
2022/04/14 06:01:20;;;;;;;17.25;6.47;;;15.10;66.10;;;;;;7370651;19;20785;-82
2022/04/14 06:03:49;;;;;;;13.13;7.38;;;15.20;66.50;;;;;;7394818;19;20043;-81
2022/04/14 06:06:22;;;;;;;13.90;7.47;;;15.30;66.60;;;;;;7374710;19;20014;-81
2022/04/14 06:09:04;;;;;;;14.40;7.60;;;15.30;66.30;;;;;;7369692;19;20014;-82
2022/04/14 06:11:47;;;;;;;19.30;10.68;;;15.30;66.60;;;;;;7371584;19;20022;-82
2022/04/14 06:14:17;;;;;;;22.98;11.07;;;15.30;66.40;;;;;;7373777;19;20744;-81
2022/04/14 06:16:47;;;;;;;16.33;9.02;;;15.40;66.40;;;;;;7374248;19;20035;-82
2022/04/14 06:19:17;;;;;;;13.13;8.27;;;15.40;66.30;;;;;;7371762;19;20020;-82
2022/04/14 06:21:47;;;;;;;17.73;8.93;;;15.40;66.10;;;;;;7398736;19;20024;-81
2022/04/14 06:24:16;;;;;;;16.08;9.18;;;15.50;66.30;;;;;;7381803;19;20018;-81
2022/04/14 06:26:48;;;;;;;19.30;9.05;;;15.50;66.30;;;;;;7376131;19;20014;-81
2022/04/14 06:29:18;;;;;;;14.18;9.75;;;15.50;66.60;;;;;;7373661;19;20025;-82
2022/04/14 06:31:47;;;;;;;17.65;10.23;;;15.60;67.00;;;;;;7371742;19;20014;-81
2022/04/14 06:34:16;;;;;;;18.17;11.00;;;15.60;67.10;;;;;;7374014;19;20019;-81
2022/04/14 06:36:45;;;;;;;16.75;11.70;;;15.60;67.20;;;;;;7393577;19;20033;-81
2022/04/14 06:39:15;;;;;;;19.50;12.45;;;15.60;67.00;;;;;;7374484;19;20069;-81
2022/04/14 06:41:47;;;;;;;25.65;12.15;;;15.50;67.00;;;;;;7369656;19;20450;-83
2022/04/14 06:44:16;;;;;;;20.42;12.25;;;15.40;67.50;;;;;;7373811;19;20086;-81
2022/04/14 06:46:45;;;;;;;26.08;13.18;;;15.40;68.10;;;;;;7372669;19;20699;-81
2022/04/14 06:49:14;;;;;;;21.90;13.43;;;15.40;68.50;;;;;;7373984;19;20000;-82
2022/04/14 06:51:43;;;;;;;24.23;13.48;;;15.40;68.80;;;;;;7392874;19;20049;-82
2022/04/14 06:54:12;;;;;;;23.02;12.73;;;15.50;68.90;;;;;;7372299;19;20034;-81
2022/04/14 06:56:41;;;;;;;27.00;13.18;;;15.50;69.00;;;;;;7373491;19;20474;-81
2022/04/14 06:59:13;;;;;;;20.73;12.43;;;15.60;69.10;;;;;;7374172;19;20018;-81
2022/04/14 07:01:41;;;;;;;;;;;15.60;68.90;;;;;;7371469;19;20007;-80
2022/04/14 07:04:10;;;;;;;30.30;12.73;;;15.70;69.10;;;;;;7372122;19;19934;-80
2022/04/14 07:06:39;;;;;;;23.42;13.25;;;15.80;68.80;;;;;;7393687;19;20018;-81
2022/04/14 07:09:08;;;;;;;22.05;12.60;;;15.80;68.70;;;;;;7369610;19;20011;-79
2022/04/14 07:11:37;;;;;;;25.10;12.50;;;15.90;69.00;;;;;;7370876;19;20510;-80
2022/04/14 07:14:06;;;;;;;20.40;12.55;;;15.90;69.10;;;;;;7370439;19;20103;-79
2022/04/14 07:16:37;;;;;;;22.65;12.27;;;16.00;69.00;;;;;;7372236;19;20035;-79
2022/04/14 07:19:06;;;;;;;18.08;12.35;;;16.10;69.00;;;;;;7370520;19;20481;-81
2022/04/14 07:21:35;;;;;;;19.08;12.35;;;16.20;68.90;;;;;;7395620;19;20050;-80
2022/04/14 07:24:03;;;;;;;15.98;10.82;;;16.30;69.20;;;;;;7374849;19;20662;-79
2022/04/14 07:26:32;;;;;;;22.25;12.25;;;16.40;68.80;;;;;;7371726;19;20022;-81
2022/04/14 07:29:01;;;;;;;17.45;11.63;;;16.50;68.90;;;;;;7379876;19;20018;-81
2022/04/14 07:31:31;;;;;;;19.13;12.55;;;16.60;68.90;;;;;;7378111;19;20011;-79
2022/04/14 07:34:03;;;;;;;28.02;13.65;;;16.70;68.80;;;;;;7375305;19;20019;-81
2022/04/14 07:36:32;;;;;;;22.02;13.13;;;16.70;68.60;;;;;;7401998;19;20081;-82
2022/04/14 07:39:06;;;;;;;25.27;14.85;;;16.70;68.60;;;;;;7377690;19;20018;-81
2022/04/14 07:41:35;;;;;;;20.95;13.57;;;16.80;68.90;;;;;;7378333;19;20019;-81
2022/04/14 07:44:06;;;;;;;22.27;12.90;;;16.80;68.80;;;;;;7379634;19;20031;-83
2022/04/14 07:46:37;;;;;;;20.27;13.25;;;16.80;69.10;;;;;;7378655;19;20086;-82
2022/04/14 07:49:09;;;;;;;23.00;13.35;;;16.80;69.20;;;;;;7376535;19;20014;-81
2022/04/14 07:51:40;;;;;;;28.10;14.48;;;16.80;69.50;;;;;;7401494;19;20018;-80
2022/04/14 07:54:12;;;;;;;28.70;14.15;;;16.90;69.80;;;;;;7378369;19;20011;-81
2022/04/14 07:56:41;;;;;;;24.10;13.02;;;16.90;70.00;;;;;;7381484;19;20026;-81
2022/04/14 07:59:10;;;;;;;21.52;13.82;;;17.00;70.10;;;;;;7378119;19;20014;-80
2022/04/14 08:01:39;;;;;;;19.65;12.30;;;17.00;70.10;;;;;;7376552;19;20034;-80
2022/04/14 08:04:15;;;;;;;22.00;11.88;;;17.10;70.20;;;;;;7373452;19;20033;-79
2022/04/14 08:06:47;;;;;;;23.40;11.13;;;17.20;70.20;;;;;;7398290;19;20030;-81
2022/04/14 08:09:21;;;;;;;20.48;10.55;;;17.30;70.40;;;;;;7377893;19;20039;-80
2022/04/14 08:15:20;;;;;;;22.98;11.18;;;17.40;70.60;;;;;;7328647;19;20002;-84
2022/04/14 08:18:06;;;;;;;17.73;10.32;;;17.40;70.40;;;;;;7282738;19;20031;-82
2022/04/14 08:20:51;;;;;;;21.98;12.02;;;17.50;70.30;;;;;;7398052;19;20010;-81
2022/04/14 08:23:42;;;;;;;15.63;10.45;;;17.60;70.00;;;;;;7336291;19;20015;-83
2022/04/14 08:32:53;;;;;;;18.33;8.57;;;17.70;69.60;;;;;;7398481;19;20563;-85
2022/04/14 08:35:27;;;;;;;16.77;8.07;;;17.80;69.20;;;;;;7371654;19;20913;-80
2022/04/14 08:38:06;;;;;;;14.27;7.43;;;17.80;69.00;;;;;;7378411;19;20039;-83
2022/04/14 08:50:56;;;;;;;13.00;6.57;;;17.90;67.30;;;;;;7282013;19;20021;-84
2022/04/14 08:53:51;;;;;;;16.30;6.57;;;18.00;67.30;;;;;;7403110;19;20021;-85
2022/04/14 08:57:16;;;;;;;10.80;5.82;;;18.00;67.00;;;;;;7332437;19;20010;-85
2022/04/14 08:59:51;;;;;;;12.20;6.03;;;18.00;66.90;;;;;;7369484;19;20510;-85
2022/04/14 09:02:27;;;;;;;12.27;6.85;;;18.10;66.80;;;;;;7378230;19;20026;-84
2022/04/14 09:04:59;;;;;;;11.90;6.47;;;18.10;66.30;;;;;;7333916;19;21436;-84
2022/04/14 09:07:38;;;;;;;15.57;7.88;;;18.20;66.20;;;;;;7375474;19;20018;-83
2022/04/14 09:10:38;;;;;;;16.92;7.03;;;18.20;65.90;;;;;;7379040;19;20018;-87
2022/04/14 09:13:08;;;;;;;18.77;8.95;;;18.20;66.00;;;;;;7374839;19;20442;-83
2022/04/14 09:15:37;;;;;;;16.52;9.20;;;18.20;66.20;;;;;;7395649;19;20023;-83
2022/04/14 09:18:07;;;;;;;15.02;8.57;;;18.30;66.10;;;;;;7374988;19;20052;-82
2022/04/14 09:20:37;;;;;;;18.00;10.20;;;18.30;65.80;;;;;;7374662;19;20085;-82
2022/04/14 09:23:15;;;;;;;15.10;8.77;;;18.30;65.30;;;;;;7377960;19;20017;-83
2022/04/14 09:25:48;;;;;;;14.32;8.90;;;18.30;64.90;;;;;;7375906;19;20761;-83
2022/04/14 09:28:19;;;;;;;17.85;10.13;;;18.40;64.70;;;;;;7374997;19;20037;-83
2022/04/14 09:31:09;;;;;;;;;;;18.40;64.90;;;;;;7398633;19;20026;-81
2022/04/14 09:34:03;;;;;;;18.23;12.00;;;18.50;64.70;;;;;;7374047;19;19915;-85
2022/04/14 09:36:36;;;;;;;20.85;12.40;;;18.50;64.90;;;;;;7376128;19;20014;-82
2022/04/14 09:39:13;;;;;;;18.77;11.05;;;18.50;64.00;;;;;;7374803;19;20019;-82
2022/04/14 09:41:46;;;;;;;17.08;10.18;;;18.60;63.20;;;;;;7374996;19;20097;-82
2022/04/14 09:44:24;;;;;;;16.95;10.02;;;18.60;62.90;;;;;;7369929;19;20403;-83
2022/04/14 09:47:21;;;;;;;15.43;9.57;;;18.40;61.90;;;;;;7370432;19;20011;-84
2022/04/14 09:58:04;;;;;;;15.00;7.75;;;18.60;60.70;;;;;;7373375;19;20090;-87
2022/04/14 10:00:41;;;;;;;16.65;7.45;;;18.70;60.40;;;;;;7373962;19;20014;-82
2022/04/14 10:07:46;;;;;;;15.63;8.65;;;18.70;60.50;;;;;;7337501;19;20032;-84
2022/04/14 10:10:26;;;;;;;17.58;9.88;;;18.70;60.50;;;;;;7169976;19;2004384;-78
2022/04/14 10:16:13;;;;;;;16.13;8.63;;;18.70;61.00;;;;;;7358905;19;20010;-80
2022/04/14 10:18:42;;;;;;;14.60;8.60;;;18.80;60.70;;;;;;7393397;19;20014;-82
2022/04/14 10:21:11;;;;;;;15.45;8.65;;;18.80;61.00;;;;;;7372079;19;20021;-81
2022/04/14 10:23:41;;;;;;;16.00;8.80;;;18.90;61.20;;;;;;7368641;19;20010;-82
2022/04/14 10:26:16;;;;;;;13.55;9.25;;;19.00;60.10;;;;;;7369180;19;20024;-86
2022/04/14 10:28:49;;;;;;;16.20;7.53;;;18.90;58.60;;;;;;7379719;19;20018;-84
2022/04/14 10:31:24;;;;;;;14.55;8.43;;;19.00;58.50;;;;;;7371869;19;20014;-83
2022/04/14 10:33:57;;;;;;;13.27;7.25;;;19.10;58.20;;;;;;7395856;19;20022;-86
2022/04/14 10:36:26;;;;;;;10.05;6.25;;;19.20;57.60;;;;;;7370675;19;20022;-84
2022/04/14 10:38:55;;;;;;;12.50;7.38;;;19.20;57.90;;;;;;7371110;19;20015;-84
2022/04/14 10:41:29;;;;;;;12.68;6.75;;;19.20;56.80;;;;;;7372787;19;20015;-84
2022/04/14 10:44:03;;;;;;;10.27;6.00;;;19.20;56.50;;;;;;7375578;19;20045;-84
2022/04/14 10:46:47;;;;;;;12.55;6.63;;;19.20;56.40;;;;;;7375244;19;20014;-84
2022/04/14 10:49:17;;;;;;;10.35;5.68;;;19.30;56.20;;;;;;7374966;19;20022;-84
2022/04/14 10:51:47;;;;;;;11.77;5.07;;;19.30;56.30;;;;;;7395675;19;20019;-84
2022/04/14 10:54:19;;;;;;;10.38;5.35;;;19.30;56.80;;;;;;7375773;19;20018;-84
2022/04/14 10:56:53;;;;;;;13.07;5.43;;;19.40;56.60;;;;;;7378257;19;20037;-84
2022/04/14 10:59:23;;;;;;;12.32;5.93;;;19.40;57.00;;;;;;7376842;19;20006;-84
2022/04/14 11:02:05;;;;;;;12.13;6.55;;;19.50;57.00;;;;;;7376924;19;20014;-84
2022/04/14 11:04:39;;;;;;;10.68;6.32;;;19.50;56.40;;;;;;7377140;19;20122;-84
2022/04/14 11:07:14;;;;;;;13.40;5.88;;;19.60;56.40;;;;;;7374090;19;20022;-84
2022/04/14 11:10:14;;;;;;;11.55;5.65;;;19.70;56.00;;;;;;7398677;19;20022;-85
2022/04/14 11:12:58;;;;;;;10.43;5.47;;;19.80;55.90;;;;;;7375262;19;20022;-84
2022/04/14 11:15:35;;;;;;;9.85;5.63;;;19.90;54.00;;;;;;7370991;19;20018;-85
2022/04/14 11:18:20;;;;;;;10.85;5.30;;;19.80;54.90;;;;;;7371126;19;20023;-85
2022/04/14 11:21:00;;;;;;;9.98;5.60;;;19.70;54.50;;;;;;7369088;19;20079;-85
2022/04/14 11:23:32;;;;;;;8.50;5.32;;;19.70;55.20;;;;;;7372610;19;20094;-85
2022/04/14 11:26:08;;;;;;;11.07;5.45;;;19.50;54.70;;;;;;7370768;19;20010;-84
2022/04/14 11:28:39;;;;;;;10.10;4.85;;;19.50;54.50;;;;;;7371705;19;20010;-85
2022/04/14 11:31:26;;;;;;;10.05;5.15;;;19.50;54.50;;;;;;7373581;19;20035;-85
2022/04/14 11:34:06;;;;;;;7.43;4.78;;;19.40;54.00;;;;;;7377983;19;20014;-86
2022/04/14 11:36:46;;;;;;;9.32;4.93;;;19.40;54.00;;;;;;7401109;19;20011;-87
2022/04/14 11:39:25;;;;;;;8.82;4.30;;;19.40;54.10;;;;;;7375886;19;20035;-88
2022/04/14 11:41:56;;;;;;;10.80;4.10;;;19.40;54.90;;;;;;7372338;19;20018;-86
2022/04/14 11:44:30;;;;;;;9.43;5.68;;;19.60;55.80;;;;;;7375434;19;20006;-88
2022/04/14 11:47:00;;;;;;;8.10;5.35;;;19.90;55.50;;;;;;7374899;19;20042;-87
2022/04/14 11:49:33;;;;;;;10.60;4.53;;;20.20;54.80;;;;;;7377239;19;20021;-85
2022/04/14 11:52:04;;;;;;;9.75;5.38;;;20.30;53.50;;;;;;7375238;19;20039;-85
2022/04/14 11:54:40;;;;;;;7.47;5.27;;;20.40;52.90;;;;;;7393188;19;20035;-83
2022/04/14 11:57:37;;;;;;;7.38;4.65;;;20.50;52.10;;;;;;7374765;19;20327;-89
2022/04/14 12:00:14;;;;;;;11.15;4.82;;;20.40;52.00;;;;;;7373906;19;20031;-85
2022/04/14 12:02:57;;;;;;;9.93;4.65;;;20.40;51.90;;;;;;7373699;19;20022;-89
2022/04/14 12:05:29;;;;;;;8.77;4.90;;;20.30;51.40;;;;;;7372410;19;20018;-85
2022/04/14 12:08:08;;;;;;;9.93;5.07;;;20.30;51.20;;;;;;7371189;19;20088;-83
2022/04/14 12:10:37;;;;;;;6.45;4.13;;;20.30;51.90;;;;;;7373766;19;20022;-84
2022/04/14 12:13:14;;;;;;;9.00;4.28;;;20.20;51.40;;;;;;7380844;19;20014;-85
2022/04/14 12:15:43;;;;;;;7.18;3.97;;;20.20;51.60;;;;;;7403862;19;20022;-86
2022/04/14 12:18:14;;;;;;;9.80;4.00;;;20.30;52.00;;;;;;7381272;19;20021;-86
2022/04/14 12:20:46;;;;;;;9.32;4.57;;;20.30;52.40;;;;;;7381829;19;20093;-87
2022/04/14 12:25:58;;;;;;;7.50;4.57;;;20.30;51.90;;;;;;7379102;19;20018;-84
2022/04/14 12:28:27;;;;;;;6.30;3.63;;;20.40;51.70;;;;;;7377840;19;20054;-84
2022/04/14 12:30:56;;;;;;;6.25;3.03;;;20.60;51.10;;;;;;7375161;19;20446;-82
2022/04/14 12:33:35;;;;;;;6.68;2.35;;;20.70;50.90;;;;;;7401510;19;20032;-84
2022/04/14 12:36:13;;;;;;;7.20;1.75;;;20.80;49.10;;;;;;7379972;19;20037;-85
2022/04/14 12:38:47;;;;;;;4.53;2.60;;;20.90;47.20;;;;;;7379675;19;20037;-84
2022/04/14 12:41:22;;;;;;;8.25;2.90;;;21.00;47.90;;;;;;7378978;19;20082;-83
2022/04/14 12:43:52;;;;;;;9.38;2.55;;;21.10;48.50;;;;;;7380802;19;20027;-88
2022/04/14 12:46:30;;;;;;;3.63;2.53;;;21.20;48.00;;;;;;7383518;19;20017;-87
2022/04/14 12:49:04;;;;;;;7.03;2.78;;;21.30;47.00;;;;;;7382490;19;20033;-86
2022/04/14 12:51:43;;;;;;;10.43;3.10;;;21.30;47.40;;;;;;7405110;19;20622;-87
2022/04/14 12:54:18;;;;;;;8.93;3.42;;;21.40;47.40;;;;;;7379250;19;20015;-86
2022/04/14 12:56:59;;;;;;;6.05;3.08;;;21.50;46.90;;;;;;7378750;19;20024;-87
2022/04/14 12:59:29;;;;;;;7.15;3.55;;;21.40;47.90;;;;;;7378910;19;20031;-86
2022/04/14 13:01:59;;;;;;;3.63;2.00;;;21.60;48.00;;;;;;7338787;19;20018;-86
2022/04/14 13:04:36;;;;;;;5.65;2.20;;;21.70;47.00;;;;;;7379621;19;20014;-84
2022/04/14 13:07:16;;;;;;;6.82;2.20;;;21.80;46.90;;;;;;7378560;19;20036;-85
2022/04/14 13:10:11;;;;;;;5.72;2.10;;;21.90;46.30;;;;;;7398580;19;20014;-85
2022/04/14 13:13:04;;;;;;;4.78;2.15;;;22.00;46.40;;;;;;7379423;19;20082;-85
2022/04/14 13:15:34;;;;;;;5.72;1.88;;;21.90;46.00;;;;;;7379859;19;20015;-86
2022/04/14 13:18:07;;;;;;;6.00;1.70;;;22.00;45.50;;;;;;7377834;19;20014;-88
2022/04/14 13:20:44;;;;;;;6.85;2.28;;;21.90;46.20;;;;;;7377833;19;20034;-87
2022/04/14 13:23:21;;;;;;;4.85;1.80;;;21.80;46.90;;;;;;7376109;19;20046;-87
2022/04/14 13:26:01;;;;;;;6.35;2.00;;;21.60;46.20;;;;;;7372954;19;20022;-88
2022/04/14 13:28:39;;;;;;;2.78;1.80;;;21.70;47.70;;;;;;7333727;19;20441;-85
2022/04/14 13:31:19;;;;;;;5.32;1.65;;;21.90;47.50;;;;;;7377216;19;20014;-87
2022/04/14 13:36:30;;;;;;;4.78;1.90;;;22.10;46.50;;;;;;7381044;19;20019;-84
2022/04/14 13:39:08;;;;;;;5.38;2.50;;;22.10;45.00;;;;;;7381401;19;20019;-85
2022/04/14 13:41:42;;;;;;;5.18;1.65;;;22.20;44.80;;;;;;7383984;19;20087;-86
2022/04/14 13:44:51;;;;;;;3.40;1.65;;;22.20;44.90;;;;;;7381380;19;20058;-86
2022/04/14 13:47:21;;;;;;;7.53;3.30;;;22.30;44.70;;;;;;7338244;19;20018;-84
2022/04/14 13:49:50;;;;;;;4.35;1.67;;;22.30;43.70;;;;;;7387745;19;20319;-85
2022/04/14 13:52:19;;;;;;;4.10;1.83;;;22.50;44.00;;;;;;7382619;19;20014;-83
2022/04/14 13:55:20;;;;;;;4.03;1.50;;;22.60;42.80;;;;;;7402521;19;20094;-84